sensor_id;sensor_type;location;lat;lon;timestamp;P1;durP1;ratioP1;P2;durP2;ratioP2
19929;SDS011;10127;47.780;9.606;2023-02-20T00:01:12;4.47;;;2.20;;
19929;SDS011;10127;47.780;9.606;2023-02-20T00:03:38;4.82;;;2.75;;
19929;SDS011;10127;47.780;9.606;2023-02-20T00:06:03;3.75;;;2.40;;
19929;SDS011;10127;47.780;9.606;2023-02-20T00:08:29;3.25;;;2.28;;
19929;SDS011;10127;47.780;9.606;2023-02-20T00:10:54;4.40;;;2.55;;
19929;SDS011;10127;47.780;9.606;2023-02-20T00:13:20;4.47;;;2.22;;
19929;SDS011;10127;47.780;9.606;2023-02-20T00:15:46;4.60;;;2.63;;
19929;SDS011;10127;47.780;9.606;2023-02-20T00:18:12;8.07;;;2.30;;
19929;SDS011;10127;47.780;9.606;2023-02-20T00:20:38;7.72;;;2.13;;
19929;SDS011;10127;47.780;9.606;2023-02-20T00:23:04;6.22;;;2.35;;
19929;SDS011;10127;47.780;9.606;2023-02-20T00:25:29;8.07;;;2.30;;
19929;SDS011;10127;47.780;9.606;2023-02-20T00:27:55;4.88;;;2.10;;
19929;SDS011;10127;47.780;9.606;2023-02-20T00:30:21;3.88;;;2.05;;
19929;SDS011;10127;47.780;9.606;2023-02-20T00:32:48;2.88;;;1.70;;
19929;SDS011;10127;47.780;9.606;2023-02-20T00:35:15;3.92;;;2.17;;
19929;SDS011;10127;47.780;9.606;2023-02-20T00:37:42;5.20;;;2.42;;
19929;SDS011;10127;47.780;9.606;2023-02-20T00:40:08;4.95;;;2.30;;
19929;SDS011;10127;47.780;9.606;2023-02-20T00:42:34;3.42;;;2.17;;
19929;SDS011;10127;47.780;9.606;2023-02-20T00:44:59;3.28;;;1.95;;
19929;SDS011;10127;47.780;9.606;2023-02-20T00:47:25;5.53;;;2.40;;
19929;SDS011;10127;47.780;9.606;2023-02-20T00:49:51;4.07;;;2.00;;
19929;SDS011;10127;47.780;9.606;2023-02-20T00:52:16;4.53;;;2.17;;
19929;SDS011;10127;47.780;9.606;2023-02-20T00:54:42;3.78;;;2.45;;
19929;SDS011;10127;47.780;9.606;2023-02-20T00:57:07;4.22;;;2.28;;
19929;SDS011;10127;47.780;9.606;2023-02-20T00:59:33;3.47;;;2.20;;
19929;SDS011;10127;47.780;9.606;2023-02-20T01:01:59;4.25;;;2.20;;
19929;SDS011;10127;47.780;9.606;2023-02-20T01:04:25;6.03;;;2.38;;
19929;SDS011;10127;47.780;9.606;2023-02-20T01:06:50;5.25;;;2.08;;
19929;SDS011;10127;47.780;9.606;2023-02-20T01:09:16;4.90;;;2.30;;
19929;SDS011;10127;47.780;9.606;2023-02-20T01:11:42;2.35;;;1.80;;
19929;SDS011;10127;47.780;9.606;2023-02-20T01:14:08;3.25;;;2.17;;
19929;SDS011;10127;47.780;9.606;2023-02-20T01:16:34;4.63;;;2.28;;
19929;SDS011;10127;47.780;9.606;2023-02-20T01:19:00;5.18;;;2.00;;
19929;SDS011;10127;47.780;9.606;2023-02-20T01:21:26;4.38;;;2.00;;
19929;SDS011;10127;47.780;9.606;2023-02-20T01:23:51;4.30;;;2.40;;
19929;SDS011;10127;47.780;9.606;2023-02-20T01:26:17;5.20;;;2.55;;
19929;SDS011;10127;47.780;9.606;2023-02-20T01:28:43;6.65;;;2.47;;
19929;SDS011;10127;47.780;9.606;2023-02-20T01:31:09;3.60;;;2.15;;
19929;SDS011;10127;47.780;9.606;2023-02-20T01:33:38;2.65;;;2.22;;
19929;SDS011;10127;47.780;9.606;2023-02-20T01:36:05;2.70;;;1.75;;
19929;SDS011;10127;47.780;9.606;2023-02-20T01:38:31;4.72;;;2.25;;
19929;SDS011;10127;47.780;9.606;2023-02-20T01:40:57;3.60;;;2.17;;
19929;SDS011;10127;47.780;9.606;2023-02-20T01:43:22;3.95;;;2.47;;
19929;SDS011;10127;47.780;9.606;2023-02-20T01:45:48;4.88;;;2.30;;
19929;SDS011;10127;47.780;9.606;2023-02-20T01:48:18;4.95;;;2.17;;
19929;SDS011;10127;47.780;9.606;2023-02-20T01:50:48;4.38;;;2.28;;
19929;SDS011;10127;47.780;9.606;2023-02-20T01:53:19;6.10;;;2.38;;
19929;SDS011;10127;47.780;9.606;2023-02-20T01:55:52;2.75;;;1.98;;
19929;SDS011;10127;47.780;9.606;2023-02-20T01:58:23;5.15;;;2.20;;
19929;SDS011;10127;47.780;9.606;2023-02-20T02:00:53;5.75;;;2.00;;
19929;SDS011;10127;47.780;9.606;2023-02-20T02:03:21;5.78;;;2.20;;
19929;SDS011;10127;47.780;9.606;2023-02-20T02:05:54;3.03;;;1.92;;
19929;SDS011;10127;47.780;9.606;2023-02-20T02:08:24;3.38;;;2.00;;
19929;SDS011;10127;47.780;9.606;2023-02-20T02:10:54;4.90;;;2.50;;
19929;SDS011;10127;47.780;9.606;2023-02-20T02:13:29;4.63;;;2.42;;
19929;SDS011;10127;47.780;9.606;2023-02-20T02:16:12;6.03;;;2.30;;
19929;SDS011;10127;47.780;9.606;2023-02-20T02:19:00;2.53;;;1.80;;
19929;SDS011;10127;47.780;9.606;2023-02-20T02:36:18;6.97;;;2.27;;
19929;SDS011;10127;47.780;9.606;2023-02-20T02:46:56;6.00;;;2.43;;
19929;SDS011;10127;47.780;9.606;2023-02-20T03:12:50;5.57;;;2.57;;
19929;SDS011;10127;47.780;9.606;2023-02-20T03:15:21;7.50;;;2.58;;
19929;SDS011;10127;47.780;9.606;2023-02-20T03:20:43;3.97;;;2.40;;
19929;SDS011;10127;47.780;9.606;2023-02-20T03:23:17;5.57;;;2.33;;
19929;SDS011;10127;47.780;9.606;2023-02-20T03:25:49;7.77;;;2.30;;
19929;SDS011;10127;47.780;9.606;2023-02-20T03:28:27;3.83;;;2.30;;
19929;SDS011;10127;47.780;9.606;2023-02-20T03:30:59;5.77;;;2.30;;
19929;SDS011;10127;47.780;9.606;2023-02-20T03:33:32;7.20;;;2.80;;
19929;SDS011;10127;47.780;9.606;2023-02-20T03:36:25;3.53;;;2.23;;
19929;SDS011;10127;47.780;9.606;2023-02-20T03:39:14;5.03;;;2.67;;
19929;SDS011;10127;47.780;9.606;2023-02-20T03:42:03;3.60;;;2.47;;
19929;SDS011;10127;47.780;9.606;2023-02-20T03:44:52;5.20;;;3.03;;
19929;SDS011;10127;47.780;9.606;2023-02-20T03:47:19;4.60;;;2.53;;
19929;SDS011;10127;47.780;9.606;2023-02-20T03:49:50;6.27;;;3.50;;
19929;SDS011;10127;47.780;9.606;2023-02-20T03:52:18;6.30;;;2.90;;
19929;SDS011;10127;47.780;9.606;2023-02-20T03:54:44;7.10;;;2.77;;
19929;SDS011;10127;47.780;9.606;2023-02-20T03:57:14;5.63;;;3.33;;
19929;SDS011;10127;47.780;9.606;2023-02-20T04:00:06;5.63;;;3.00;;
19929;SDS011;10127;47.780;9.606;2023-02-20T04:02:39;6.77;;;3.43;;
19929;SDS011;10127;47.780;9.606;2023-02-20T04:05:17;5.97;;;3.17;;
19929;SDS011;10127;47.780;9.606;2023-02-20T04:07:56;7.03;;;3.00;;
19929;SDS011;10127;47.780;9.606;2023-02-20T04:10:27;8.43;;;3.27;;
19929;SDS011;10127;47.780;9.606;2023-02-20T04:12:56;8.30;;;2.93;;
19929;SDS011;10127;47.780;9.606;2023-02-20T04:15:23;5.37;;;3.00;;
19929;SDS011;10127;47.780;9.606;2023-02-20T04:18:11;7.03;;;3.00;;
19929;SDS011;10127;47.780;9.606;2023-02-20T04:20:37;7.53;;;3.30;;
19929;SDS011;10127;47.780;9.606;2023-02-20T04:23:04;6.37;;;3.43;;
19929;SDS011;10127;47.780;9.606;2023-02-20T04:25:44;7.33;;;3.00;;
19929;SDS011;10127;47.780;9.606;2023-02-20T04:28:15;6.80;;;3.27;;
19929;SDS011;10127;47.780;9.606;2023-02-20T04:30:42;5.37;;;2.50;;
19929;SDS011;10127;47.780;9.606;2023-02-20T04:33:11;5.00;;;3.13;;
19929;SDS011;10127;47.780;9.606;2023-02-20T04:35:38;7.63;;;3.27;;
19929;SDS011;10127;47.780;9.606;2023-02-20T04:38:04;8.43;;;3.40;;
19929;SDS011;10127;47.780;9.606;2023-02-20T04:40:30;4.87;;;2.60;;
19929;SDS011;10127;47.780;9.606;2023-02-20T04:42:56;5.73;;;2.63;;
19929;SDS011;10127;47.780;9.606;2023-02-20T04:45:21;3.87;;;2.83;;
19929;SDS011;10127;47.780;9.606;2023-02-20T04:47:47;7.57;;;2.73;;
19929;SDS011;10127;47.780;9.606;2023-02-20T04:50:15;7.57;;;3.27;;
19929;SDS011;10127;47.780;9.606;2023-02-20T04:52:47;6.03;;;3.33;;
19929;SDS011;10127;47.780;9.606;2023-02-20T04:55:13;4.67;;;2.60;;
19929;SDS011;10127;47.780;9.606;2023-02-20T04:57:39;4.63;;;3.20;;
19929;SDS011;10127;47.780;9.606;2023-02-20T05:00:05;6.47;;;3.10;;
19929;SDS011;10127;47.780;9.606;2023-02-20T05:02:33;6.77;;;2.93;;
19929;SDS011;10127;47.780;9.606;2023-02-20T05:04:59;4.43;;;3.10;;
19929;SDS011;10127;47.780;9.606;2023-02-20T05:07:24;7.23;;;3.53;;
19929;SDS011;10127;47.780;9.606;2023-02-20T05:09:50;5.47;;;3.20;;
19929;SDS011;10127;47.780;9.606;2023-02-20T05:12:15;5.40;;;3.13;;
19929;SDS011;10127;47.780;9.606;2023-02-20T05:14:41;6.47;;;3.40;;
19929;SDS011;10127;47.780;9.606;2023-02-20T05:17:07;6.20;;;3.23;;
19929;SDS011;10127;47.780;9.606;2023-02-20T05:19:32;6.33;;;3.60;;
19929;SDS011;10127;47.780;9.606;2023-02-20T05:21:58;6.90;;;3.43;;
19929;SDS011;10127;47.780;9.606;2023-02-20T05:24:42;5.40;;;3.37;;
19929;SDS011;10127;47.780;9.606;2023-02-20T05:27:09;6.63;;;3.70;;
19929;SDS011;10127;47.780;9.606;2023-02-20T05:29:34;6.00;;;4.27;;
19929;SDS011;10127;47.780;9.606;2023-02-20T05:32:00;5.77;;;3.30;;
19929;SDS011;10127;47.780;9.606;2023-02-20T05:34:26;7.40;;;3.53;;
19929;SDS011;10127;47.780;9.606;2023-02-20T05:36:52;8.33;;;3.73;;
19929;SDS011;10127;47.780;9.606;2023-02-20T05:39:18;10.43;;;4.00;;
19929;SDS011;10127;47.780;9.606;2023-02-20T05:41:44;8.40;;;3.80;;
19929;SDS011;10127;47.780;9.606;2023-02-20T05:44:09;7.17;;;3.60;;
19929;SDS011;10127;47.780;9.606;2023-02-20T05:46:39;5.93;;;3.10;;
19929;SDS011;10127;47.780;9.606;2023-02-20T05:49:06;9.37;;;4.00;;
19929;SDS011;10127;47.780;9.606;2023-02-20T05:51:32;11.37;;;3.97;;
19929;SDS011;10127;47.780;9.606;2023-02-20T05:53:57;7.20;;;4.57;;
19929;SDS011;10127;47.780;9.606;2023-02-20T05:56:23;10.23;;;4.60;;
19929;SDS011;10127;47.780;9.606;2023-02-20T05:58:49;5.23;;;3.10;;
19929;SDS011;10127;47.780;9.606;2023-02-20T06:01:19;7.03;;;3.97;;
19929;SDS011;10127;47.780;9.606;2023-02-20T06:03:46;6.60;;;4.17;;
19929;SDS011;10127;47.780;9.606;2023-02-20T06:06:12;8.13;;;3.80;;
19929;SDS011;10127;47.780;9.606;2023-02-20T06:08:38;4.17;;;2.87;;
19929;SDS011;10127;47.780;9.606;2023-02-20T06:11:04;8.03;;;3.50;;
19929;SDS011;10127;47.780;9.606;2023-02-20T06:13:30;9.43;;;3.10;;
19929;SDS011;10127;47.780;9.606;2023-02-20T06:15:55;8.37;;;3.90;;
19929;SDS011;10127;47.780;9.606;2023-02-20T06:18:21;8.77;;;4.23;;
19929;SDS011;10127;47.780;9.606;2023-02-20T06:20:46;12.07;;;4.17;;
19929;SDS011;10127;47.780;9.606;2023-02-20T06:23:12;13.10;;;4.03;;
19929;SDS011;10127;47.780;9.606;2023-02-20T06:25:37;8.07;;;3.93;;
19929;SDS011;10127;47.780;9.606;2023-02-20T06:28:03;7.00;;;3.63;;
19929;SDS011;10127;47.780;9.606;2023-02-20T06:30:29;8.83;;;4.00;;
19929;SDS011;10127;47.780;9.606;2023-02-20T06:32:54;5.23;;;3.27;;
19929;SDS011;10127;47.780;9.606;2023-02-20T06:35:20;11.10;;;3.93;;
19929;SDS011;10127;47.780;9.606;2023-02-20T06:37:46;11.40;;;4.40;;
19929;SDS011;10127;47.780;9.606;2023-02-20T06:40:11;14.97;;;4.30;;
19929;SDS011;10127;47.780;9.606;2023-02-20T06:42:37;11.97;;;4.73;;
19929;SDS011;10127;47.780;9.606;2023-02-20T06:45:03;5.83;;;4.17;;
19929;SDS011;10127;47.780;9.606;2023-02-20T06:47:29;8.67;;;4.57;;
19929;SDS011;10127;47.780;9.606;2023-02-20T06:49:54;6.23;;;3.73;;
19929;SDS011;10127;47.780;9.606;2023-02-20T06:52:20;6.80;;;3.93;;
19929;SDS011;10127;47.780;9.606;2023-02-20T06:54:45;9.13;;;4.40;;
19929;SDS011;10127;47.780;9.606;2023-02-20T06:57:11;7.43;;;4.10;;
19929;SDS011;10127;47.780;9.606;2023-02-20T06:59:37;12.27;;;4.53;;
19929;SDS011;10127;47.780;9.606;2023-02-20T07:02:06;8.37;;;4.73;;
19929;SDS011;10127;47.780;9.606;2023-02-20T07:04:35;17.87;;;5.73;;
19929;SDS011;10127;47.780;9.606;2023-02-20T07:07:00;14.60;;;5.20;;
19929;SDS011;10127;47.780;9.606;2023-02-20T07:09:26;11.67;;;4.97;;
19929;SDS011;10127;47.780;9.606;2023-02-20T07:11:52;9.80;;;5.40;;
19929;SDS011;10127;47.780;9.606;2023-02-20T07:14:18;12.90;;;5.27;;
19929;SDS011;10127;47.780;9.606;2023-02-20T07:16:44;12.50;;;6.00;;
19929;SDS011;10127;47.780;9.606;2023-02-20T07:19:10;12.53;;;4.90;;
19929;SDS011;10127;47.780;9.606;2023-02-20T07:21:36;11.80;;;5.03;;
19929;SDS011;10127;47.780;9.606;2023-02-20T07:24:01;9.37;;;5.20;;
19929;SDS011;10127;47.780;9.606;2023-02-20T07:26:27;8.87;;;4.03;;
19929;SDS011;10127;47.780;9.606;2023-02-20T07:28:54;9.33;;;4.20;;
19929;SDS011;10127;47.780;9.606;2023-02-20T07:31:22;7.37;;;4.27;;
19929;SDS011;10127;47.780;9.606;2023-02-20T07:33:48;8.97;;;4.40;;
19929;SDS011;10127;47.780;9.606;2023-02-20T07:36:14;10.43;;;4.70;;
19929;SDS011;10127;47.780;9.606;2023-02-20T07:38:40;11.40;;;4.30;;
19929;SDS011;10127;47.780;9.606;2023-02-20T07:41:06;7.83;;;4.07;;
19929;SDS011;10127;47.780;9.606;2023-02-20T07:43:32;14.83;;;8.67;;
19929;SDS011;10127;47.780;9.606;2023-02-20T07:45:58;9.20;;;5.00;;
19929;SDS011;10127;47.780;9.606;2023-02-20T07:48:23;6.80;;;4.40;;
19929;SDS011;10127;47.780;9.606;2023-02-20T07:50:49;9.30;;;4.47;;
19929;SDS011;10127;47.780;9.606;2023-02-20T07:53:17;21.00;;;11.03;;
19929;SDS011;10127;47.780;9.606;2023-02-20T07:55:43;8.63;;;5.00;;
19929;SDS011;10127;47.780;9.606;2023-02-20T07:58:09;5.80;;;4.00;;
19929;SDS011;10127;47.780;9.606;2023-02-20T08:00:35;9.17;;;4.40;;
19929;SDS011;10127;47.780;9.606;2023-02-20T08:03:01;5.93;;;4.07;;
19929;SDS011;10127;47.780;9.606;2023-02-20T08:05:26;8.10;;;3.83;;
19929;SDS011;10127;47.780;9.606;2023-02-20T08:07:53;6.70;;;4.30;;
19929;SDS011;10127;47.780;9.606;2023-02-20T08:10:20;10.00;;;4.27;;
19929;SDS011;10127;47.780;9.606;2023-02-20T08:12:48;8.77;;;4.03;;
19929;SDS011;10127;47.780;9.606;2023-02-20T08:15:14;8.83;;;4.27;;
19929;SDS011;10127;47.780;9.606;2023-02-20T08:17:41;6.43;;;4.13;;
19929;SDS011;10127;47.780;9.606;2023-02-20T08:20:07;7.17;;;4.27;;
19929;SDS011;10127;47.780;9.606;2023-02-20T08:22:33;7.63;;;4.27;;
19929;SDS011;10127;47.780;9.606;2023-02-20T08:24:59;6.80;;;4.22;;
19929;SDS011;10127;47.780;9.606;2023-02-20T08:27:25;8.00;;;4.30;;
19929;SDS011;10127;47.780;9.606;2023-02-20T08:29:52;23.43;;;10.80;;
19929;SDS011;10127;47.780;9.606;2023-02-20T08:32:17;15.45;;;9.77;;
19929;SDS011;10127;47.780;9.606;2023-02-20T08:34:43;8.18;;;5.05;;
19929;SDS011;10127;47.780;9.606;2023-02-20T08:37:09;11.88;;;4.53;;
19929;SDS011;10127;47.780;9.606;2023-02-20T08:39:35;8.90;;;4.57;;
19929;SDS011;10127;47.780;9.606;2023-02-20T08:42:01;7.20;;;4.68;;
19929;SDS011;10127;47.780;9.606;2023-02-20T08:44:26;9.20;;;4.22;;
19929;SDS011;10127;47.780;9.606;2023-02-20T08:46:52;7.57;;;4.57;;
19929;SDS011;10127;47.780;9.606;2023-02-20T08:49:18;8.02;;;3.95;;
19929;SDS011;10127;47.780;9.606;2023-02-20T08:51:45;7.18;;;4.00;;
19929;SDS011;10127;47.780;9.606;2023-02-20T08:54:20;6.13;;;3.90;;
19929;SDS011;10127;47.780;9.606;2023-02-20T08:56:46;10.82;;;4.60;;
19929;SDS011;10127;47.780;9.606;2023-02-20T08:59:11;10.73;;;4.28;;
19929;SDS011;10127;47.780;9.606;2023-02-20T09:01:39;10.77;;;3.53;;
19929;SDS011;10127;47.780;9.606;2023-02-20T09:04:06;13.73;;;4.22;;
19929;SDS011;10127;47.780;9.606;2023-02-20T09:06:34;14.93;;;5.22;;
19929;SDS011;10127;47.780;9.606;2023-02-20T09:09:00;7.72;;;3.78;;
19929;SDS011;10127;47.780;9.606;2023-02-20T09:11:26;15.27;;;4.50;;
19929;SDS011;10127;47.780;9.606;2023-02-20T09:13:52;11.48;;;4.50;;
19929;SDS011;10127;47.780;9.606;2023-02-20T09:16:19;10.18;;;4.22;;
19929;SDS011;10127;47.780;9.606;2023-02-20T09:18:46;13.73;;;3.70;;
19929;SDS011;10127;47.780;9.606;2023-02-20T09:21:13;6.85;;;3.40;;
19929;SDS011;10127;47.780;9.606;2023-02-20T09:23:40;6.30;;;3.03;;
19929;SDS011;10127;47.780;9.606;2023-02-20T09:26:06;6.22;;;3.50;;
19929;SDS011;10127;47.780;9.606;2023-02-20T09:28:32;6.13;;;2.72;;
19929;SDS011;10127;47.780;9.606;2023-02-20T09:30:58;11.80;;;3.00;;
19929;SDS011;10127;47.780;9.606;2023-02-20T09:33:24;9.68;;;3.13;;
19929;SDS011;10127;47.780;9.606;2023-02-20T09:35:51;8.73;;;2.95;;
19929;SDS011;10127;47.780;9.606;2023-02-20T09:38:18;8.10;;;3.25;;
19929;SDS011;10127;47.780;9.606;2023-02-20T09:40:52;11.00;;;2.92;;
19929;SDS011;10127;47.780;9.606;2023-02-20T09:46:19;8.25;;;3.45;;
19929;SDS011;10127;47.780;9.606;2023-02-20T09:51:19;21.60;;;11.85;;
19929;SDS011;10127;47.780;9.606;2023-02-20T09:56:40;8.63;;;3.05;;
19929;SDS011;10127;47.780;9.606;2023-02-20T10:01:52;11.95;;;3.38;;
19929;SDS011;10127;47.780;9.606;2023-02-20T10:04:51;5.63;;;2.75;;
19929;SDS011;10127;47.780;9.606;2023-02-20T10:09:52;6.38;;;2.63;;
19929;SDS011;10127;47.780;9.606;2023-02-20T10:26:11;6.15;;;2.30;;
19929;SDS011;10127;47.780;9.606;2023-02-20T10:28:50;13.40;;;3.05;;
19929;SDS011;10127;47.780;9.606;2023-02-20T10:31:22;7.43;;;2.72;;
19929;SDS011;10127;47.780;9.606;2023-02-20T10:34:08;7.47;;;2.90;;
19929;SDS011;10127;47.780;9.606;2023-02-20T10:36:38;7.18;;;2.80;;
19929;SDS011;10127;47.780;9.606;2023-02-20T10:39:10;10.02;;;3.33;;
19929;SDS011;10127;47.780;9.606;2023-02-20T10:41:42;7.88;;;2.50;;
19929;SDS011;10127;47.780;9.606;2023-02-20T10:44:24;6.15;;;3.20;;
19929;SDS011;10127;47.780;9.606;2023-02-20T10:49:22;10.20;;;4.55;;
19929;SDS011;10127;47.780;9.606;2023-02-20T10:51:56;4.45;;;2.75;;
19929;SDS011;10127;47.780;9.606;2023-02-20T10:54:46;4.55;;;2.33;;
19929;SDS011;10127;47.780;9.606;2023-02-20T10:57:24;7.50;;;2.17;;
19929;SDS011;10127;47.780;9.606;2023-02-20T11:02:28;5.93;;;2.80;;
19929;SDS011;10127;47.780;9.606;2023-02-20T11:05:02;5.70;;;2.45;;
19929;SDS011;10127;47.780;9.606;2023-02-20T11:07:34;10.00;;;3.30;;
19929;SDS011;10127;47.780;9.606;2023-02-20T11:10:00;6.88;;;3.13;;
19929;SDS011;10127;47.780;9.606;2023-02-20T11:12:33;6.60;;;2.80;;
19929;SDS011;10127;47.780;9.606;2023-02-20T11:15:04;6.80;;;2.65;;
19929;SDS011;10127;47.780;9.606;2023-02-20T11:17:31;7.32;;;2.75;;
19929;SDS011;10127;47.780;9.606;2023-02-20T11:19:58;10.93;;;3.38;;
19929;SDS011;10127;47.780;9.606;2023-02-20T11:22:39;6.05;;;2.70;;
19929;SDS011;10127;47.780;9.606;2023-02-20T11:25:15;4.38;;;2.60;;
19929;SDS011;10127;47.780;9.606;2023-02-20T11:27:45;4.47;;;2.53;;
19929;SDS011;10127;47.780;9.606;2023-02-20T11:30:26;3.10;;;2.35;;
19929;SDS011;10127;47.780;9.606;2023-02-20T11:33:10;4.82;;;2.47;;
19929;SDS011;10127;47.780;9.606;2023-02-20T11:35:39;7.88;;;2.67;;
19929;SDS011;10127;47.780;9.606;2023-02-20T11:43:25;5.97;;;3.25;;
19929;SDS011;10127;47.780;9.606;2023-02-20T11:46:36;6.85;;;3.95;;
19929;SDS011;10127;47.780;9.606;2023-02-20T11:57:30;4.63;;;2.63;;
19929;SDS011;10127;47.780;9.606;2023-02-20T11:59:40;3.80;;;2.30;;
19929;SDS011;10127;47.780;9.606;2023-02-20T12:04:39;5.95;;;2.28;;
19929;SDS011;10127;47.780;9.606;2023-02-20T12:07:28;4.93;;;2.40;;
19929;SDS011;10127;47.780;9.606;2023-02-20T12:09:54;3.88;;;2.42;;
19929;SDS011;10127;47.780;9.606;2023-02-20T12:12:23;4.55;;;2.03;;
19929;SDS011;10127;47.780;9.606;2023-02-20T12:14:52;3.90;;;2.08;;
19929;SDS011;10127;47.780;9.606;2023-02-20T12:17:20;5.38;;;2.25;;
19929;SDS011;10127;47.780;9.606;2023-02-20T12:20:06;3.83;;;2.40;;
19929;SDS011;10127;47.780;9.606;2023-02-20T12:22:37;8.63;;;3.13;;
19929;SDS011;10127;47.780;9.606;2023-02-20T12:33:52;2.97;;;1.90;;
19929;SDS011;10127;47.780;9.606;2023-02-20T12:36:45;8.05;;;2.20;;
19929;SDS011;10127;47.780;9.606;2023-02-20T12:42:09;4.95;;;2.40;;
19929;SDS011;10127;47.780;9.606;2023-02-20T12:52:48;6.78;;;1.90;;
19929;SDS011;10127;47.780;9.606;2023-02-20T13:01:00;7.35;;;2.47;;
19929;SDS011;10127;47.780;9.606;2023-02-20T13:03:43;11.77;;;6.43;;
19929;SDS011;10127;47.780;9.606;2023-02-20T13:06:23;14.90;;;6.97;;
19929;SDS011;10127;47.780;9.606;2023-02-20T13:08:57;3.25;;;2.03;;
19929;SDS011;10127;47.780;9.606;2023-02-20T13:11:30;4.35;;;2.05;;
19929;SDS011;10127;47.780;9.606;2023-02-20T13:19:16;3.28;;;1.88;;
19929;SDS011;10127;47.780;9.606;2023-02-20T13:22:10;4.18;;;1.73;;
19929;SDS011;10127;47.780;9.606;2023-02-20T13:24:37;4.70;;;1.85;;
19929;SDS011;10127;47.780;9.606;2023-02-20T13:27:07;5.28;;;2.17;;
19929;SDS011;10127;47.780;9.606;2023-02-20T13:29:56;4.20;;;1.77;;
19929;SDS011;10127;47.780;9.606;2023-02-20T13:32:24;2.30;;;1.42;;
19929;SDS011;10127;47.780;9.606;2023-02-20T13:34:52;3.05;;;2.03;;
19929;SDS011;10127;47.780;9.606;2023-02-20T13:40:32;3.05;;;2.00;;
19929;SDS011;10127;47.780;9.606;2023-02-20T13:42:47;5.72;;;2.50;;
19929;SDS011;10127;47.780;9.606;2023-02-20T13:45:39;5.75;;;2.95;;
19929;SDS011;10127;47.780;9.606;2023-02-20T13:50:44;3.40;;;2.03;;
19929;SDS011;10127;47.780;9.606;2023-02-20T13:53:10;10.35;;;2.97;;
19929;SDS011;10127;47.780;9.606;2023-02-20T13:55:36;5.80;;;1.98;;
19929;SDS011;10127;47.780;9.606;2023-02-20T14:00:49;7.35;;;2.13;;
19929;SDS011;10127;47.780;9.606;2023-02-20T14:05:43;3.15;;;1.98;;
19929;SDS011;10127;47.780;9.606;2023-02-20T14:08:16;2.95;;;1.60;;
19929;SDS011;10127;47.780;9.606;2023-02-20T14:10:44;3.25;;;1.83;;
19929;SDS011;10127;47.780;9.606;2023-02-20T14:13:18;2.88;;;1.80;;
19929;SDS011;10127;47.780;9.606;2023-02-20T14:15:49;3.22;;;1.75;;
19929;SDS011;10127;47.780;9.606;2023-02-20T14:18:24;7.72;;;2.10;;
19929;SDS011;10127;47.780;9.606;2023-02-20T14:20:57;4.38;;;2.22;;
19929;SDS011;10127;47.780;9.606;2023-02-20T14:23:24;2.35;;;1.50;;
19929;SDS011;10127;47.780;9.606;2023-02-20T14:26:36;2.33;;;1.70;;
19929;SDS011;10127;47.780;9.606;2023-02-20T14:28:49;6.82;;;1.80;;
19929;SDS011;10127;47.780;9.606;2023-02-20T14:31:18;8.77;;;2.10;;
19929;SDS011;10127;47.780;9.606;2023-02-20T14:33:44;3.20;;;1.83;;
19929;SDS011;10127;47.780;9.606;2023-02-20T14:38:55;4.38;;;1.70;;
19929;SDS011;10127;47.780;9.606;2023-02-20T14:41:28;2.75;;;1.60;;
19929;SDS011;10127;47.780;9.606;2023-02-20T14:43:56;2.63;;;1.50;;
19929;SDS011;10127;47.780;9.606;2023-02-20T14:46:25;4.38;;;1.73;;
19929;SDS011;10127;47.780;9.606;2023-02-20T14:49:02;5.45;;;1.60;;
19929;SDS011;10127;47.780;9.606;2023-02-20T14:51:28;6.43;;;1.50;;
19929;SDS011;10127;47.780;9.606;2023-02-20T14:53:58;2.80;;;1.48;;
19929;SDS011;10127;47.780;9.606;2023-02-20T14:56:25;8.18;;;1.88;;
19929;SDS011;10127;47.780;9.606;2023-02-20T14:58:52;1.92;;;1.40;;
19929;SDS011;10127;47.780;9.606;2023-02-20T15:04:02;11.18;;;2.13;;
19929;SDS011;10127;47.780;9.606;2023-02-20T15:06:37;6.60;;;1.65;;
19929;SDS011;10127;47.780;9.606;2023-02-20T15:09:03;2.17;;;1.20;;
19929;SDS011;10127;47.780;9.606;2023-02-20T15:11:31;3.25;;;1.42;;
19929;SDS011;10127;47.780;9.606;2023-02-20T15:13:57;3.40;;;1.98;;
19929;SDS011;10127;47.780;9.606;2023-02-20T15:16:31;3.05;;;1.65;;
19929;SDS011;10127;47.780;9.606;2023-02-20T15:18:59;2.50;;;1.60;;
19929;SDS011;10127;47.780;9.606;2023-02-20T15:24:09;7.28;;;1.50;;
19929;SDS011;10127;47.780;9.606;2023-02-20T15:26:37;7.95;;;3.10;;
19929;SDS011;10127;47.780;9.606;2023-02-20T15:31:36;4.07;;;1.77;;
19929;SDS011;10127;47.780;9.606;2023-02-20T15:34:05;7.03;;;1.58;;
19929;SDS011;10127;47.780;9.606;2023-02-20T15:36:41;3.78;;;1.80;;
19929;SDS011;10127;47.780;9.606;2023-02-20T15:39:08;5.63;;;1.83;;
19929;SDS011;10127;47.780;9.606;2023-02-20T15:41:35;4.68;;;1.60;;
19929;SDS011;10127;47.780;9.606;2023-02-20T15:44:01;2.03;;;1.30;;
19929;SDS011;10127;47.780;9.606;2023-02-20T15:46:27;4.47;;;1.88;;
19929;SDS011;10127;47.780;9.606;2023-02-20T15:48:53;4.53;;;1.90;;
19929;SDS011;10127;47.780;9.606;2023-02-20T15:51:20;5.95;;;1.80;;
19929;SDS011;10127;47.780;9.606;2023-02-20T15:53:46;3.25;;;1.80;;
19929;SDS011;10127;47.780;9.606;2023-02-20T15:56:15;6.45;;;2.30;;
19929;SDS011;10127;47.780;9.606;2023-02-20T15:58:41;5.22;;;2.30;;
19929;SDS011;10127;47.780;9.606;2023-02-20T16:01:07;4.18;;;1.95;;
19929;SDS011;10127;47.780;9.606;2023-02-20T16:03:34;5.20;;;2.55;;
19929;SDS011;10127;47.780;9.606;2023-02-20T16:06:00;3.65;;;1.88;;
19929;SDS011;10127;47.780;9.606;2023-02-20T16:08:26;2.33;;;1.80;;
19929;SDS011;10127;47.780;9.606;2023-02-20T16:10:52;6.70;;;2.00;;
19929;SDS011;10127;47.780;9.606;2023-02-20T16:15:50;7.35;;;2.30;;
19929;SDS011;10127;47.780;9.606;2023-02-20T16:18:15;3.33;;;2.00;;
19929;SDS011;10127;47.780;9.606;2023-02-20T16:20:41;8.13;;;2.15;;
19929;SDS011;10127;47.780;9.606;2023-02-20T16:23:07;5.53;;;3.13;;
19929;SDS011;10127;47.780;9.606;2023-02-20T16:25:34;4.75;;;2.75;;
19929;SDS011;10127;47.780;9.606;2023-02-20T16:28:00;6.55;;;3.10;;
19929;SDS011;10127;47.780;9.606;2023-02-20T16:32:54;6.00;;;3.10;;
19929;SDS011;10127;47.780;9.606;2023-02-20T16:35:20;6.55;;;3.38;;
19929;SDS011;10127;47.780;9.606;2023-02-20T16:37:46;10.60;;;3.78;;
19929;SDS011;10127;47.780;9.606;2023-02-20T16:40:12;10.00;;;4.72;;
19929;SDS011;10127;47.780;9.606;2023-02-20T16:42:38;11.57;;;4.68;;
19929;SDS011;10127;47.780;9.606;2023-02-20T16:45:06;9.35;;;4.13;;
19929;SDS011;10127;47.780;9.606;2023-02-20T16:47:39;8.00;;;4.85;;
19929;SDS011;10127;47.780;9.606;2023-02-20T16:50:06;11.10;;;6.60;;
19929;SDS011;10127;47.780;9.606;2023-02-20T16:52:37;11.13;;;5.55;;
19929;SDS011;10127;47.780;9.606;2023-02-20T16:55:05;15.30;;;6.78;;
19929;SDS011;10127;47.780;9.606;2023-02-20T16:57:42;14.63;;;6.38;;
19929;SDS011;10127;47.780;9.606;2023-02-20T17:00:08;15.55;;;6.40;;
19929;SDS011;10127;47.780;9.606;2023-02-20T17:02:37;14.13;;;7.18;;
19929;SDS011;10127;47.780;9.606;2023-02-20T17:05:03;14.25;;;7.28;;
19929;SDS011;10127;47.780;9.606;2023-02-20T17:07:28;12.43;;;6.47;;
19929;SDS011;10127;47.780;9.606;2023-02-20T17:09:55;11.55;;;7.05;;
19929;SDS011;10127;47.780;9.606;2023-02-20T17:12:21;12.23;;;6.38;;
19929;SDS011;10127;47.780;9.606;2023-02-20T17:14:48;11.73;;;5.88;;
19929;SDS011;10127;47.780;9.606;2023-02-20T17:17:14;14.93;;;6.80;;
19929;SDS011;10127;47.780;9.606;2023-02-20T17:19:40;13.20;;;6.13;;
19929;SDS011;10127;47.780;9.606;2023-02-20T17:22:07;10.73;;;6.60;;
19929;SDS011;10127;47.780;9.606;2023-02-20T17:24:34;10.45;;;5.78;;
19929;SDS011;10127;47.780;9.606;2023-02-20T17:27:00;12.35;;;6.40;;
19929;SDS011;10127;47.780;9.606;2023-02-20T17:29:26;13.05;;;6.03;;
19929;SDS011;10127;47.780;9.606;2023-02-20T17:31:53;16.55;;;6.15;;